createdAt,value
2024-04-30T00:00:46.801Z,2.20
2024-04-30T00:03:14.688Z,2.00
2024-04-30T00:05:48.095Z,1.65
2024-04-30T00:08:18.509Z,2.10
2024-04-30T00:10:49.265Z,2.00
2024-04-30T00:13:17.262Z,2.20
2024-04-30T00:15:47.542Z,2.08
2024-04-30T00:18:15.326Z,2.13
2024-04-30T00:20:46.021Z,2.30
2024-04-30T00:23:13.679Z,2.05
2024-04-30T00:25:47.145Z,2.00
2024-04-30T00:28:15.044Z,2.25
2024-04-30T00:30:45.903Z,2.05
2024-04-30T00:33:13.719Z,1.90
2024-04-30T00:35:44.498Z,2.63
2024-04-30T00:38:12.357Z,1.88
2024-04-30T00:40:45.634Z,2.30
2024-04-30T00:43:13.599Z,2.42
2024-04-30T00:45:44.069Z,2.67
2024-04-30T00:48:12.022Z,2.35
2024-04-30T00:50:44.823Z,2.47
2024-04-30T00:53:12.770Z,2.15
2024-04-30T00:55:46.054Z,2.10
2024-04-30T00:58:14.458Z,1.92
2024-04-30T01:00:45.024Z,2.60
2024-04-30T01:03:12.908Z,1.95
2024-04-30T01:05:43.526Z,2.00
2024-04-30T01:08:11.282Z,2.28
2024-04-30T01:10:42.079Z,2.25
2024-04-30T01:13:12.615Z,2.17
2024-04-30T01:15:42.978Z,2.33
2024-04-30T01:18:10.751Z,2.08
2024-04-30T01:20:41.071Z,2.42
2024-04-30T01:23:11.780Z,1.83
2024-04-30T01:25:43.485Z,2.00
2024-04-30T01:28:11.413Z,2.70
2024-04-30T01:30:42.263Z,2.33
2024-04-30T01:33:11.871Z,2.20
2024-04-30T01:35:43.053Z,2.08
2024-04-30T01:38:13.753Z,2.13
2024-04-30T01:40:44.260Z,2.13
2024-04-30T01:43:12.010Z,2.42
2024-04-30T01:45:42.415Z,2.55
2024-04-30T01:48:10.402Z,2.40
2024-04-30T01:50:41.187Z,2.65
2024-04-30T01:53:08.802Z,2.50
2024-04-30T01:55:41.907Z,2.65
2024-04-30T01:58:11.364Z,2.58
2024-04-30T02:00:42.135Z,3.50
2024-04-30T02:03:10.031Z,2.90
2024-04-30T02:05:40.653Z,2.70
2024-04-30T02:08:08.407Z,2.58
2024-04-30T02:10:41.911Z,2.70
2024-04-30T02:13:09.946Z,2.35
2024-04-30T02:15:40.629Z,2.92
2024-04-30T02:18:09.162Z,2.90
2024-04-30T02:20:39.580Z,2.58
2024-04-30T02:23:07.723Z,3.30
2024-04-30T02:25:38.373Z,3.58
2024-04-30T02:28:08.995Z,2.97
2024-04-30T02:30:55.059Z,3.13
2024-04-30T02:33:41.218Z,3.10
2024-04-30T02:36:14.746Z,2.92
2024-04-30T02:38:45.468Z,2.88
2024-04-30T02:41:16.425Z,3.28
2024-04-30T02:43:49.758Z,3.10
2024-04-30T02:46:17.472Z,3.38
2024-04-30T02:48:48.144Z,3.15
2024-04-30T02:51:19.408Z,3.10
2024-04-30T02:53:49.820Z,3.40
2024-04-30T02:56:17.652Z,3.08
2024-04-30T02:58:50.704Z,3.53
2024-04-30T03:01:18.494Z,3.35
2024-04-30T03:03:50.588Z,3.28
2024-04-30T03:06:18.392Z,3.22
2024-04-30T03:08:49.020Z,3.90
2024-04-30T03:11:16.868Z,3.83
2024-04-30T03:13:50.135Z,3.70
2024-04-30T03:16:18.096Z,3.83
2024-04-30T03:18:48.536Z,3.40
2024-04-30T03:21:16.344Z,3.63
2024-04-30T03:23:47.013Z,3.30
2024-04-30T03:26:14.724Z,3.63
2024-04-30T03:28:49.279Z,4.30
2024-04-30T03:31:17.557Z,4.10
2024-04-30T03:33:48.259Z,3.80
2024-04-30T03:36:15.970Z,4.60
2024-04-30T03:38:47.115Z,4.28
2024-04-30T03:41:18.165Z,3.05
2024-04-30T03:43:51.661Z,3.92
2024-04-30T03:46:22.148Z,3.72
2024-04-30T03:48:52.829Z,3.60
2024-04-30T03:51:23.259Z,4.07
2024-04-30T03:53:50.943Z,4.03
2024-04-30T03:56:21.815Z,3.78
2024-04-30T03:58:52.310Z,4.40
2024-04-30T04:01:23.098Z,3.92
2024-04-30T04:03:50.865Z,4.35
2024-04-30T04:06:21.524Z,3.83
2024-04-30T04:08:49.316Z,4.20
2024-04-30T04:11:35.583Z,3.90
2024-04-30T04:14:21.312Z,4.13
2024-04-30T04:16:52.068Z,4.05
2024-04-30T04:19:22.514Z,4.28
2024-04-30T04:21:53.264Z,4.82
2024-04-30T04:24:23.932Z,5.07
2024-04-30T04:26:51.781Z,4.47
2024-04-30T04:29:25.462Z,4.00
2024-04-30T04:31:57.323Z,4.32
2024-04-30T04:34:26.235Z,4.63
2024-04-30T04:36:57.191Z,3.90
2024-04-30T04:39:25.262Z,4.20
2024-04-30T04:41:55.881Z,5.65
2024-04-30T04:44:26.546Z,5.00
2024-04-30T04:46:57.266Z,4.28
2024-04-30T04:49:25.083Z,4.22
2024-04-30T04:51:55.373Z,4.55
2024-04-30T04:54:23.112Z,4.22
2024-04-30T04:56:53.769Z,4.70
2024-04-30T04:59:21.769Z,4.05
2024-04-30T05:01:55.403Z,4.63
2024-04-30T05:04:23.359Z,4.65
2024-04-30T05:06:55.335Z,4.43
2024-04-30T05:09:28.776Z,4.32
2024-04-30T05:11:59.661Z,4.57
2024-04-30T05:14:27.452Z,4.68
2024-04-30T05:17:00.824Z,4.43
2024-04-30T05:19:28.753Z,4.05
2024-04-30T05:21:59.201Z,4.35
2024-04-30T05:24:26.933Z,4.00
2024-04-30T05:26:57.605Z,3.90
2024-04-30T05:29:25.335Z,3.42
2024-04-30T05:31:56.143Z,4.20
2024-04-30T05:34:26.652Z,4.28
2024-04-30T05:36:57.512Z,4.38
2024-04-30T05:39:25.260Z,3.95
2024-04-30T05:41:56.011Z,4.93
2024-04-30T05:44:23.825Z,4.47
2024-04-30T05:46:54.589Z,4.28
2024-04-30T05:49:22.382Z,5.15
2024-04-30T05:51:55.805Z,3.67
2024-04-30T05:54:23.982Z,4.47
2024-04-30T05:56:54.470Z,3.20
2024-04-30T05:59:22.198Z,3.17
2024-04-30T06:01:53.033Z,3.53
2024-04-30T06:04:20.930Z,2.72
2024-04-30T06:06:51.715Z,2.83
2024-04-30T06:09:22.280Z,2.25
2024-04-30T06:11:53.122Z,2.63
2024-04-30T06:14:23.277Z,2.67
2024-04-30T06:16:55.592Z,3.05
2024-04-30T06:19:24.018Z,2.22
2024-04-30T06:21:54.619Z,2.05
2024-04-30T06:24:25.798Z,2.50
2024-04-30T06:26:56.553Z,2.20
2024-04-30T06:29:24.264Z,2.55
2024-04-30T06:31:54.852Z,1.90
2024-04-30T06:34:22.707Z,1.90
2024-04-30T06:36:53.441Z,2.50
2024-04-30T06:39:24.914Z,1.67
2024-04-30T06:41:55.562Z,1.55
2024-04-30T06:44:23.428Z,1.60
2024-04-30T06:46:54.094Z,1.92
2024-04-30T06:49:24.985Z,1.40
2024-04-30T06:51:56.807Z,1.88
2024-04-30T06:54:27.373Z,2.13
2024-04-30T06:56:58.129Z,2.10
2024-04-30T06:59:25.782Z,1.70
2024-04-30T07:01:56.528Z,1.73
2024-04-30T07:04:24.379Z,1.50
2024-04-30T07:06:55.102Z,1.73
2024-04-30T07:09:22.990Z,1.65
2024-04-30T07:11:56.394Z,1.45
2024-04-30T07:14:24.257Z,1.63
2024-04-30T07:17:02.542Z,1.50
2024-04-30T07:19:37.395Z,1.20
2024-04-30T07:22:05.576Z,1.23
2024-04-30T07:24:36.410Z,1.67
2024-04-30T07:27:06.971Z,1.00
2024-04-30T07:29:37.397Z,1.00
2024-04-30T07:32:05.666Z,1.33
2024-04-30T07:34:36.209Z,1.27
2024-04-30T07:37:04.117Z,1.05
2024-04-30T07:39:34.880Z,0.98
2024-04-30T07:42:03.972Z,0.88
2024-04-30T07:44:39.212Z,1.10
2024-04-30T07:47:07.130Z,1.17
2024-04-30T07:49:37.833Z,1.00
2024-04-30T07:52:06.120Z,1.02
2024-04-30T07:54:37.472Z,1.08
2024-04-30T07:57:05.873Z,0.90
2024-04-30T07:59:39.266Z,0.77
2024-04-30T08:02:07.759Z,1.00
2024-04-30T08:04:39.079Z,0.88
2024-04-30T08:07:06.963Z,0.98
2024-04-30T08:09:37.332Z,1.30
2024-04-30T08:12:05.891Z,0.80
2024-04-30T08:14:39.385Z,0.93
2024-04-30T08:17:07.137Z,0.80
2024-04-30T08:19:38.180Z,0.68
2024-04-30T08:22:05.970Z,0.77
2024-04-30T08:24:36.741Z,0.77
2024-04-30T08:27:04.868Z,0.65
2024-04-30T08:29:35.553Z,1.00
2024-04-30T08:32:06.642Z,1.27
2024-04-30T08:34:37.411Z,0.80
2024-04-30T08:37:05.424Z,0.68
2024-04-30T08:39:37.044Z,0.98
2024-04-30T08:42:05.745Z,0.80
2024-04-30T08:44:37.340Z,0.90
2024-04-30T08:47:11.187Z,1.10
2024-04-30T08:49:48.973Z,0.60
2024-04-30T08:52:23.080Z,0.88
2024-04-30T08:54:52.618Z,1.08
2024-04-30T08:57:23.524Z,1.48
2024-04-30T08:59:51.515Z,1.30
2024-04-30T09:02:25.742Z,0.85
2024-04-30T09:04:54.334Z,1.02
2024-04-30T09:07:25.425Z,0.70
2024-04-30T09:09:56.987Z,0.90
2024-04-30T09:12:27.433Z,1.08
2024-04-30T09:14:55.506Z,0.75
2024-04-30T09:17:30.881Z,0.90
2024-04-30T09:20:06.038Z,1.15
2024-04-30T09:22:36.739Z,0.80
2024-04-30T09:25:04.786Z,0.70
2024-04-30T09:27:36.132Z,0.82
2024-04-30T09:30:03.986Z,1.03
2024-04-30T09:32:37.109Z,1.23
2024-04-30T09:35:05.393Z,0.85
2024-04-30T09:37:37.635Z,0.70
2024-04-30T09:40:06.899Z,0.50
2024-04-30T09:42:40.584Z,0.98
2024-04-30T09:45:09.601Z,0.82
2024-04-30T09:47:43.695Z,0.90
2024-04-30T09:50:12.063Z,0.90
2024-04-30T09:52:44.568Z,0.82
2024-04-30T09:55:12.550Z,1.02
2024-04-30T09:57:43.374Z,0.95
2024-04-30T10:00:12.782Z,1.05
2024-04-30T10:02:49.146Z,0.70
2024-04-30T10:05:22.315Z,1.00
2024-04-30T10:07:53.456Z,0.68
2024-04-30T10:10:25.430Z,1.20
2024-04-30T10:12:56.278Z,0.80
2024-04-30T10:15:31.995Z,0.98
2024-04-30T10:18:05.347Z,0.65
2024-04-30T10:20:33.975Z,0.70
2024-04-30T10:23:05.288Z,0.60
2024-04-30T10:25:33.181Z,0.60
2024-04-30T10:28:10.988Z,0.60
2024-04-30T10:30:38.678Z,0.60
2024-04-30T10:33:11.871Z,0.65
2024-04-30T10:35:44.095Z,0.98
2024-04-30T10:40:45.402Z,0.60
2024-04-30T10:43:21.357Z,0.88
2024-04-30T10:45:51.779Z,1.35
2024-04-30T10:48:22.192Z,0.73
2024-04-30T10:51:02.485Z,0.65
2024-04-30T10:53:30.628Z,0.70
2024-04-30T10:56:01.583Z,0.95
2024-04-30T10:58:29.548Z,0.70
2024-04-30T11:01:00.635Z,0.63
2024-04-30T11:03:34.893Z,0.68
2024-04-30T11:06:03.123Z,0.63
2024-04-30T11:08:35.532Z,0.50
2024-04-30T11:11:10.632Z,0.57
2024-04-30T11:13:41.385Z,1.05
2024-04-30T11:16:15.917Z,0.65
2024-04-30T11:18:50.290Z,0.82
2024-04-30T11:21:22.664Z,0.60
2024-04-30T11:23:53.422Z,1.00
2024-04-30T11:26:24.370Z,0.85
2024-04-30T11:29:08.442Z,0.82
2024-04-30T11:31:42.735Z,1.38
2024-04-30T11:34:13.494Z,0.73
2024-04-30T11:36:43.941Z,0.60
2024-04-30T11:39:13.929Z,1.17
2024-04-30T11:41:49.211Z,0.85
2024-04-30T11:44:24.972Z,1.10
2024-04-30T11:46:55.722Z,0.98
2024-04-30T11:49:26.280Z,0.90
2024-04-30T11:52:01.360Z,0.70
2024-04-30T11:54:30.066Z,0.65
2024-04-30T11:57:00.882Z,0.63
2024-04-30T11:59:28.929Z,0.85
2024-04-30T12:01:59.338Z,1.00
2024-04-30T12:04:34.048Z,0.80
2024-04-30T12:07:01.848Z,0.65
2024-04-30T12:09:32.425Z,1.20
2024-04-30T12:12:00.239Z,0.80
2024-04-30T12:14:30.898Z,1.10
2024-04-30T12:16:58.728Z,0.98
2024-04-30T12:19:29.209Z,1.08
2024-04-30T12:21:59.692Z,0.70
2024-04-30T12:24:30.165Z,0.95
2024-04-30T12:26:58.136Z,0.70
2024-04-30T12:29:28.715Z,0.90
2024-04-30T12:31:56.448Z,1.08
2024-04-30T12:34:27.200Z,0.90
2024-04-30T12:36:55.063Z,0.90
2024-04-30T12:39:28.748Z,0.85
2024-04-30T12:41:59.402Z,0.82
2024-04-30T12:44:27.204Z,1.27
2024-04-30T12:46:57.659Z,1.70
2024-04-30T12:49:25.442Z,1.02
2024-04-30T12:51:56.489Z,1.40
2024-04-30T12:54:27.209Z,1.15
2024-04-30T12:56:57.837Z,0.90
2024-04-30T12:59:26.028Z,0.90
2024-04-30T13:01:57.195Z,2.03
2024-04-30T13:04:25.035Z,5.20
2024-04-30T13:06:55.655Z,2.63
2024-04-30T13:09:26.069Z,2.88
2024-04-30T13:11:56.512Z,0.90
2024-04-30T13:14:24.448Z,0.82
2024-04-30T13:16:55.251Z,0.40
2024-04-30T13:19:23.036Z,0.65
2024-04-30T13:21:53.523Z,0.60
2024-04-30T13:24:21.162Z,1.00
2024-04-30T13:26:54.656Z,0.90
2024-04-30T13:29:22.497Z,0.98
2024-04-30T13:31:53.031Z,0.60
2024-04-30T13:34:20.842Z,0.40
2024-04-30T13:36:51.755Z,0.73
2024-04-30T13:39:20.202Z,0.50
2024-04-30T13:41:54.690Z,4.15
2024-04-30T13:44:25.402Z,3.42
2024-04-30T13:46:53.225Z,6.00
2024-04-30T13:49:24.265Z,1.15
2024-04-30T13:51:53.039Z,4.80
2024-04-30T13:54:23.836Z,0.93
2024-04-30T13:56:54.344Z,5.97
2024-04-30T13:59:25.171Z,9.80
2024-04-30T14:01:53.256Z,2.50
2024-04-30T14:04:25.869Z,3.30
2024-04-30T14:06:53.836Z,1.90
2024-04-30T14:09:25.563Z,0.80
2024-04-30T14:11:55.995Z,0.60
2024-04-30T14:14:26.734Z,0.52
2024-04-30T14:16:54.525Z,0.45
2024-04-30T14:19:25.800Z,0.50
2024-04-30T14:21:53.634Z,0.60
2024-04-30T14:24:24.300Z,0.40
2024-04-30T14:26:54.641Z,1.25
2024-04-30T14:29:25.122Z,1.23
2024-04-30T14:31:52.940Z,1.55
2024-04-30T14:34:23.447Z,1.27
2024-04-30T14:36:51.170Z,1.10
2024-04-30T14:39:21.591Z,0.85
2024-04-30T14:41:49.342Z,0.60
2024-04-30T14:44:22.435Z,0.40
2024-04-30T14:46:50.502Z,0.80
2024-04-30T14:49:21.351Z,1.48
2024-04-30T14:51:49.255Z,0.77
2024-04-30T14:54:19.693Z,0.60
2024-04-30T14:56:47.517Z,0.60
2024-04-30T14:59:18.340Z,0.77
2024-04-30T15:01:48.856Z,0.50
2024-04-30T15:04:19.307Z,0.80
2024-04-30T15:06:47.142Z,0.90
2024-04-30T15:09:17.678Z,1.05
2024-04-30T15:11:48.063Z,1.45
2024-04-30T15:14:15.789Z,1.50
2024-04-30T15:16:47.067Z,2.05
2024-04-30T15:19:17.895Z,2.00
2024-04-30T15:21:48.820Z,1.80
2024-04-30T15:24:16.545Z,1.30
2024-04-30T15:26:47.765Z,1.52
2024-04-30T15:29:15.831Z,1.10
2024-04-30T15:31:46.579Z,1.20
2024-04-30T15:34:17.123Z,1.73
2024-04-30T15:36:47.547Z,1.65
2024-04-30T15:39:21.332Z,2.53
2024-04-30T15:41:49.300Z,1.40
2024-04-30T15:44:19.951Z,3.03
2024-04-30T15:46:47.886Z,2.53
2024-04-30T15:49:21.481Z,2.38
2024-04-30T15:51:49.303Z,2.30
2024-04-30T15:54:21.146Z,1.80
2024-04-30T15:56:54.368Z,2.00
2024-04-30T15:59:31.863Z,2.45
2024-04-30T16:01:59.822Z,1.10
2024-04-30T16:04:33.078Z,2.75
2024-04-30T16:07:01.075Z,1.60
2024-04-30T16:09:31.981Z,0.60
2024-04-30T16:11:59.707Z,1.30
2024-04-30T16:14:30.384Z,3.30
2024-04-30T16:16:58.343Z,2.20
2024-04-30T16:19:28.769Z,1.00
2024-04-30T16:21:59.282Z,3.92
2024-04-30T16:24:29.717Z,3.88
2024-04-30T16:26:57.634Z,1.08
2024-04-30T16:29:28.554Z,1.15
2024-04-30T16:31:56.860Z,0.60
2024-04-30T16:34:27.322Z,1.08
2024-04-30T16:37:00.974Z,0.73
2024-04-30T16:39:31.713Z,0.85
2024-04-30T16:41:59.992Z,1.60
2024-04-30T16:44:40.895Z,0.75
2024-04-30T16:47:12.582Z,1.20
2024-04-30T16:49:43.207Z,0.70
2024-04-30T16:52:13.707Z,0.55
2024-04-30T16:54:44.504Z,0.50
2024-04-30T16:57:12.330Z,0.68
2024-04-30T16:59:42.756Z,0.60
2024-04-30T17:02:12.188Z,0.75
2024-04-30T17:04:43.427Z,0.65
2024-04-30T17:07:14.106Z,0.60
2024-04-30T17:09:45.585Z,0.47
2024-04-30T17:12:13.307Z,0.50
2024-04-30T17:14:44.076Z,0.52
2024-04-30T17:17:11.967Z,0.70
2024-04-30T17:19:43.190Z,0.98
2024-04-30T17:22:13.650Z,0.50
2024-04-30T17:24:44.534Z,0.70
2024-04-30T17:27:14.101Z,0.70
2024-04-30T17:29:45.072Z,0.43
2024-04-30T17:32:16.552Z,0.50
2024-04-30T17:34:44.309Z,1.38
2024-04-30T17:37:18.207Z,0.98
2024-04-30T17:39:46.497Z,0.80
2024-04-30T17:42:17.687Z,1.77
2024-04-30T17:44:45.486Z,1.45
2024-04-30T17:47:15.998Z,0.60
2024-04-30T17:49:43.913Z,0.80
2024-04-30T17:52:17.771Z,0.95
2024-04-30T17:54:45.567Z,1.13
2024-04-30T17:57:16.599Z,0.57
2024-04-30T17:59:44.483Z,0.43
2024-04-30T18:02:14.905Z,0.70
2024-04-30T18:04:46.511Z,0.65
2024-04-30T18:07:17.095Z,0.80
2024-04-30T18:09:47.555Z,0.70
2024-04-30T18:12:15.226Z,1.85
2024-04-30T18:14:45.923Z,1.05
2024-04-30T18:17:13.724Z,0.95
2024-04-30T18:19:47.320Z,0.40
2024-04-30T18:22:18.374Z,1.17
2024-04-30T18:24:48.923Z,1.23
2024-04-30T18:27:18.277Z,1.35
2024-04-30T18:29:49.667Z,1.02
2024-04-30T18:32:17.849Z,1.23
2024-04-30T18:34:49.110Z,1.20
2024-04-30T18:37:19.851Z,1.05
2024-04-30T18:39:51.539Z,1.05
2024-04-30T18:42:20.421Z,1.35
2024-04-30T18:44:52.087Z,0.90
2024-04-30T18:47:22.276Z,1.73
2024-04-30T18:49:53.269Z,1.40
2024-04-30T18:52:25.213Z,1.52
2024-04-30T18:54:55.909Z,1.73
2024-04-30T18:57:25.535Z,1.42
2024-04-30T18:59:58.260Z,1.70
2024-04-30T19:02:27.931Z,2.05
2024-04-30T19:05:01.303Z,1.98
2024-04-30T19:07:33.595Z,2.63
2024-04-30T19:10:08.147Z,4.45
2024-04-30T19:12:36.563Z,4.97
2024-04-30T19:15:08.535Z,5.15
2024-04-30T19:17:38.417Z,4.68
2024-04-30T19:20:10.654Z,3.70
2024-04-30T19:25:14.927Z,2.85
2024-04-30T19:27:43.895Z,2.17
2024-04-30T19:30:16.632Z,2.50
2024-04-30T19:32:49.764Z,2.13
2024-04-30T19:35:20.405Z,1.60
2024-04-30T19:37:55.019Z,1.52
2024-04-30T19:40:25.428Z,1.40
2024-04-30T19:42:58.957Z,1.30
2024-04-30T19:45:48.691Z,1.30
2024-04-30T19:48:24.182Z,1.50
2024-04-30T19:50:55.746Z,0.93
2024-04-30T19:53:30.820Z,1.08
2024-04-30T19:55:59.494Z,1.80
2024-04-30T19:58:31.968Z,1.05
2024-04-30T20:01:01.339Z,1.08
2024-04-30T20:03:34.288Z,1.48
2024-04-30T20:06:10.060Z,1.40
2024-04-30T20:08:50.423Z,1.38
2024-04-30T20:11:20.605Z,1.30
2024-04-30T20:13:51.833Z,0.90
2024-04-30T20:16:20.323Z,1.17
2024-04-30T20:18:51.779Z,1.13
2024-04-30T20:21:20.131Z,1.40
2024-04-30T20:23:55.557Z,1.17
2024-04-30T20:26:27.916Z,1.27
2024-04-30T20:31:40.166Z,1.20
2024-04-30T20:34:08.597Z,1.20
2024-04-30T20:36:39.856Z,1.40
2024-04-30T20:39:11.412Z,1.10
2024-04-30T20:41:44.326Z,1.27
2024-04-30T20:44:12.913Z,1.08
2024-04-30T20:46:43.512Z,1.83
2024-04-30T20:49:11.656Z,1.17
2024-04-30T20:51:46.723Z,1.02
2024-04-30T20:54:19.979Z,0.82
2024-04-30T20:56:47.751Z,0.82
2024-04-30T20:59:18.504Z,1.63
2024-04-30T21:01:47.633Z,1.00
2024-04-30T21:04:18.372Z,1.17
2024-04-30T21:06:46.296Z,0.63
2024-04-30T21:09:20.023Z,1.00
2024-04-30T21:11:47.899Z,0.75
2024-04-30T21:14:18.611Z,1.20
2024-04-30T21:16:46.324Z,0.65
2024-04-30T21:19:17.360Z,1.00
2024-04-30T21:21:45.322Z,0.88
2024-04-30T21:24:16.087Z,0.80
2024-04-30T21:26:46.839Z,1.20
2024-04-30T21:29:17.526Z,0.95
2024-04-30T21:31:45.292Z,1.00
2024-04-30T21:34:16.936Z,1.17
2024-04-30T21:36:46.668Z,1.42
2024-04-30T21:39:17.353Z,0.82
2024-04-30T21:41:47.853Z,1.27
2024-04-30T21:44:18.594Z,1.15
2024-04-30T21:46:46.319Z,1.13
2024-04-30T21:49:17.140Z,0.90
2024-04-30T21:51:46.602Z,1.33
2024-04-30T21:54:18.021Z,1.05
2024-04-30T21:56:48.415Z,0.70
2024-04-30T21:59:19.158Z,1.05
2024-04-30T22:01:47.690Z,1.38
2024-04-30T22:04:18.684Z,0.82
2024-04-30T22:06:47.206Z,0.80
2024-04-30T22:09:18.482Z,0.75
2024-04-30T22:11:49.400Z,1.00
2024-04-30T22:14:20.219Z,0.80
2024-04-30T22:16:47.980Z,0.88
2024-04-30T22:19:18.448Z,1.20
2024-04-30T22:21:47.665Z,0.80
2024-04-30T22:24:18.521Z,0.70
2024-04-30T22:26:49.160Z,1.00
2024-04-30T22:29:22.533Z,1.52
2024-04-30T22:31:50.962Z,0.90
2024-04-30T22:34:21.872Z,1.02
2024-04-30T22:36:50.300Z,1.00
2024-04-30T22:39:21.001Z,0.95
2024-04-30T22:41:52.293Z,1.13
2024-04-30T22:44:22.990Z,1.17
2024-04-30T22:46:50.727Z,1.00
2024-04-30T22:49:21.489Z,1.10
2024-04-30T22:51:49.281Z,1.13
2024-04-30T22:54:19.972Z,1.55
2024-04-30T22:56:51.777Z,1.52
2024-04-30T22:59:22.615Z,1.52
2024-04-30T23:01:50.767Z,1.50
2024-04-30T23:04:21.387Z,2.25
2024-04-30T23:06:49.280Z,1.10
2024-04-30T23:09:21.149Z,2.05
2024-04-30T23:11:51.642Z,1.52
2024-04-30T23:14:22.317Z,1.83
2024-04-30T23:16:50.099Z,1.10
2024-04-30T23:19:20.934Z,1.80
2024-04-30T23:21:49.153Z,1.75
2024-04-30T23:24:19.728Z,2.10
2024-04-30T23:26:47.491Z,1.55
2024-04-30T23:29:22.434Z,1.67
2024-04-30T23:31:51.493Z,2.13
2024-04-30T23:34:21.979Z,1.83
2024-04-30T23:36:53.381Z,1.50
2024-04-30T23:39:24.251Z,2.03
2024-04-30T23:41:51.983Z,2.00
2024-04-30T23:44:25.010Z,1.73
2024-04-30T23:46:52.898Z,1.70
2024-04-30T23:49:23.363Z,1.65
2024-04-30T23:51:51.267Z,2.22
2024-04-30T23:54:21.768Z,2.35
2024-04-30T23:56:49.633Z,2.28
2024-04-30T23:59:20.324Z,2.13
